Time;durP1;ratioP1;P1;durP2;ratioP2;P2;SDS_P1;SDS_P2;PMS_P1;PMS_P2;Temp;Humidity;BMP_temperature;BMP_pressure;BME280_temperature;BME280_humidity;BME280_pressure;Samples;Min_cycle;Max_cycle;Signal;HPM_P1;HPM_P2
2022/03/04 00:01:15;;;;;;;18.52;7.78;;;;;;;-2.18;100.00;101767.88;5026163;28;20552;-83
2022/03/04 00:03:41;;;;;;;13.82;5.22;;;;;;;-2.23;100.00;101760.16;5045086;28;20495;-81
2022/03/04 00:06:07;;;;;;;7.28;2.40;;;;;;;-2.11;100.00;101764.06;5046394;28;20043;-83
2022/03/04 00:08:32;;;;;;;9.07;3.60;;;;;;;-1.84;100.00;101760.13;5039200;28;20093;-84
2022/03/04 00:10:58;;;;;;;8.32;3.15;;;;;;;-1.52;100.00;101749.84;5033351;28;20463;-82
2022/03/04 00:13:24;;;;;;;6.32;2.92;;;;;;;-1.28;100.00;101742.50;5067545;28;20436;-83
2022/03/04 00:15:50;;;;;;;8.77;2.03;;;;;;;-0.90;100.00;101766.13;5029966;28;20037;-82
2022/03/04 00:18:16;;;;;;;9.63;2.63;;;;;;;-1.03;100.00;101749.22;5030003;28;20037;-83
2022/03/04 00:20:42;;;;;;;7.97;1.55;;;;;;;-0.92;100.00;101760.09;5049459;28;20037;-85
2022/03/04 00:23:08;;;;;;;3.97;2.00;;;;;;;-0.87;100.00;101771.28;5029155;28;20036;-81
2022/03/04 00:25:34;;;;;;;8.13;1.98;;;;;;;-0.97;100.00;101764.75;5063060;28;20051;-83
2022/03/04 00:27:59;;;;;;;4.22;1.88;;;;;;;-1.04;100.00;101771.28;5049241;28;20017;-83
2022/03/04 00:30:25;;;;;;;7.32;1.90;;;;;;;-1.09;100.00;101775.91;5044318;28;20582;-82
2022/03/04 00:32:51;;;;;;;5.82;2.28;;;;;;;-1.17;100.00;101768.38;5025274;28;20040;-83
2022/03/04 00:35:17;;;;;;;7.53;2.20;;;;;;;-1.19;100.00;101770.22;5042394;28;20044;-84
2022/03/04 00:37:42;;;;;;;23.08;9.18;;;;;;;-1.37;100.00;101764.94;5056311;28;20056;-86
2022/03/04 00:40:09;;;;;;;45.90;14.98;;;;;;;-1.57;100.00;101765.88;5037013;28;20389;-83
2022/03/04 00:42:35;;;;;;;17.77;5.68;;;;;;;-1.87;100.00;101720.75;5038866;28;20055;-83
2022/03/04 00:45:01;;;;;;;12.27;5.25;;;;;;;-1.65;100.00;101778.56;5040919;28;20033;-83
2022/03/04 00:47:26;;;;;;;16.75;5.75;;;;;;;-1.87;100.00;101777.88;5038397;28;20032;-82
2022/03/04 00:49:52;;;;;;;15.25;5.45;;;;;;;-2.21;100.00;101779.41;5058242;28;20047;-82
2022/03/04 00:52:18;;;;;;;101.32;22.55;;;;;;;-2.49;100.00;101775.38;5043048;28;20035;-83
2022/03/04 00:54:50;;;;;;;76.28;20.80;;;;;;;-2.75;100.00;101768.59;5056437;28;20101;-82
2022/03/04 00:57:16;;;;;;;12.27;5.88;;;;;;;-2.69;100.00;101778.84;5043697;28;20093;-80
2022/03/04 00:59:42;;;;;;;14.43;5.40;;;;;;;-2.58;100.00;101786.28;5057392;28;20033;-80
2022/03/04 01:02:07;;;;;;;12.02;4.57;;;;;;;-2.63;100.00;101782.16;5030128;28;20143;-82
2022/03/04 01:04:34;;;;;;;8.13;4.95;;;;;;;-2.72;100.00;101778.13;5015026;28;20028;-81
2022/03/04 01:06:59;;;;;;;12.13;5.32;;;;;;;-2.83;100.00;101773.34;5047381;28;20079;-83
2022/03/04 01:09:25;;;;;;;7.28;4.45;;;;;;;-2.94;100.00;101778.16;5049157;28;20120;-83
2022/03/04 01:11:50;;;;;;;11.55;4.13;;;;;;;-2.32;100.00;101771.97;5030447;28;20035;-84
2022/03/04 01:14:16;;;;;;;8.75;3.70;;;;;;;-1.89;100.00;101785.84;5047749;28;20531;-82
2022/03/04 01:16:42;;;;;;;8.07;3.08;;;;;;;-1.98;100.00;101781.00;5029883;28;20127;-82
2022/03/04 01:19:07;;;;;;;13.07;3.50;;;;;;;-2.13;100.00;101784.34;5047343;28;20389;-82
2022/03/04 01:21:34;;;;;;;11.63;3.83;;;;;;;-2.21;100.00;101801.34;5059876;28;20068;-80
2022/03/04 01:24:00;;;;;;;12.45;3.72;;;;;;;-2.41;100.00;101797.88;5050117;28;20477;-80
2022/03/04 01:26:26;;;;;;;69.40;17.98;;;;;;;-2.62;100.00;101797.00;5031778;28;20043;-80
2022/03/04 01:28:51;;;;;;;67.55;21.52;;;;;;;-2.75;100.00;101804.56;5064982;28;20028;-83
2022/03/04 01:31:17;;;;;;;41.00;14.45;;;;;;;-2.84;100.00;101802.34;5028567;28;20039;-83
2022/03/04 01:33:42;;;;;;;11.88;4.10;;;;;;;-2.78;100.00;101805.56;5042063;28;20042;-83
2022/03/04 01:36:08;;;;;;;5.35;2.45;;;;;;;-2.72;100.00;101788.66;5053912;28;20112;-80
2022/03/04 01:38:34;;;;;;;12.18;4.05;;;;;;;-2.85;100.00;101788.31;5029407;28;20041;-81
2022/03/04 01:41:00;;;;;;;8.80;3.15;;;;;;;-2.89;100.00;101811.25;5034293;28;20040;-84
2022/03/04 01:43:25;;;;;;;12.20;3.88;;;;;;;-3.06;100.00;101797.97;5066542;28;20040;-84
2022/03/04 01:45:52;;;;;;;4.68;2.47;;;;;;;-2.93;100.00;101807.06;5029542;28;20486;-81
2022/03/04 01:48:21;;;;;;;11.95;3.15;;;;;;;-2.76;100.00;101818.66;5062595;28;20425;-82
2022/03/04 01:50:51;;;;;;;2.97;2.15;;;;;;;-2.82;100.00;101816.28;5033602;28;20029;-82
2022/03/04 01:53:17;;;;;;;6.70;2.80;;;;;;;-3.00;100.00;101815.25;5049277;28;22466;-83
2022/03/04 01:55:43;;;;;;;11.05;2.95;;;;;;;-3.06;100.00;101826.06;5035109;28;20040;-81
2022/03/04 01:58:09;;;;;;;4.80;2.17;;;;;;;-3.28;100.00;101803.25;5038615;28;20186;-81
2022/03/04 02:00:35;;;;;;;4.57;2.22;;;;;;;-3.30;100.00;101822.63;5030571;28;20547;-82
2022/03/04 02:03:01;;;;;;;5.90;2.70;;;;;;;-3.26;100.00;101816.31;5033966;28;20068;-84
2022/03/04 02:05:26;;;;;;;9.07;3.28;;;;;;;-3.15;100.00;101817.63;5068731;28;20529;-83
2022/03/04 02:07:52;;;;;;;7.38;2.50;;;;;;;-3.07;100.00;101819.06;5064550;28;20029;-82
2022/03/04 02:10:18;;;;;;;5.35;2.50;;;;;;;-3.23;100.00;101826.72;5032041;28;20470;-81
2022/03/04 02:12:46;;;;;;;10.00;2.92;;;;;;;-3.32;100.00;101828.78;5045838;28;20046;-81
2022/03/04 02:15:12;;;;;;;4.60;2.42;;;;;;;-3.23;100.00;101831.97;5035677;28;20043;-81
2022/03/04 02:17:38;;;;;;;3.00;1.75;;;;;;;-3.13;100.00;101834.16;5036849;28;20037;-81
2022/03/04 02:20:05;;;;;;;8.07;2.35;;;;;;;-3.06;100.00;101834.78;5033272;28;20025;-82
2022/03/04 02:22:31;;;;;;;7.30;2.15;;;;;;;-3.16;100.00;101815.88;5067530;28;20123;-83
2022/03/04 02:24:57;;;;;;;5.07;2.63;;;;;;;-3.16;100.00;101836.94;5068704;28;20032;-82
2022/03/04 02:27:22;;;;;;;11.70;2.85;;;;;;;-3.46;100.00;101801.34;5052482;28;20073;-81
2022/03/04 02:29:48;;;;;;;3.28;1.92;;;;;;;-3.40;100.00;101840.53;5047412;28;20488;-83
2022/03/04 02:32:14;;;;;;;4.38;2.08;;;;;;;-3.41;100.00;101844.09;5060856;28;20028;-82
2022/03/04 02:34:40;;;;;;;12.48;2.80;;;;;;;-3.42;100.00;101840.56;5033634;28;20394;-83
2022/03/04 02:37:05;;;;;;;11.18;2.60;;;;;;;-3.48;100.00;101850.50;5035236;28;20238;-83
2022/03/04 02:39:31;;;;;;;7.22;2.72;;;;;;;-3.47;100.00;101847.78;5054689;28;20350;-84
2022/03/04 02:41:57;;;;;;;7.15;3.05;;;;;;;-3.63;100.00;101829.09;5029200;28;20466;-83
2022/03/04 02:44:22;;;;;;;11.63;3.50;;;;;;;-3.69;100.00;101839.88;5033285;28;20036;-82
2022/03/04 02:46:48;;;;;;;9.73;3.28;;;;;;;-3.81;100.00;101832.44;5052228;28;20054;-82
2022/03/04 02:49:14;;;;;;;10.52;4.30;;;;;;;-3.68;100.00;101844.19;5030812;28;20040;-82
2022/03/04 02:51:39;;;;;;;5.93;2.78;;;;;;;-3.63;100.00;101847.50;5067665;28;20085;-84
2022/03/04 02:54:05;;;;;;;7.38;3.72;;;;;;;-3.51;100.00;101861.13;5023809;28;20430;-81
2022/03/04 02:56:31;;;;;;;14.65;3.92;;;;;;;-3.50;100.00;101852.31;5049427;28;20029;-81
2022/03/04 02:58:57;;;;;;;8.48;4.00;;;;;;;-3.32;100.00;101852.47;5061050;28;20500;-81
2022/03/04 03:01:41;;;;;;;6.82;3.03;;;;;;;-3.19;100.00;101849.34;5047162;28;20041;-82
2022/03/04 03:04:28;;;;;;;7.05;3.13;;;;;;;-3.30;100.00;101844.53;5050476;28;20049;-81
2022/03/04 03:06:54;;;;;;;6.60;3.10;;;;;;;-3.83;100.00;101784.34;5050903;28;20080;-82
2022/03/04 03:09:19;;;;;;;9.93;3.08;;;;;;;-3.49;100.00;101852.28;5037914;28;20063;-82
2022/03/04 03:11:45;;;;;;;3.67;2.58;;;;;;;-3.53;100.00;101846.25;5032560;28;20035;-83
2022/03/04 03:14:10;;;;;;;7.47;2.33;;;;;;;-3.53;100.00;101840.13;5043344;28;20040;-83
2022/03/04 03:16:36;;;;;;;5.97;2.83;;;;;;;-3.39;100.00;101840.44;5041541;28;20466;-82
2022/03/04 03:19:02;;;;;;;6.88;3.00;;;;;;;-3.37;100.00;101837.78;5046727;28;20138;-82
2022/03/04 03:21:27;;;;;;;9.15;2.80;;;;;;;-3.37;100.00;101836.00;5025631;28;20036;-82
2022/03/04 03:23:53;;;;;;;7.78;2.67;;;;;;;-3.30;100.00;101833.16;5034814;28;20047;-82
2022/03/04 03:26:19;;;;;;;8.48;3.33;;;;;;;-3.18;100.00;101833.50;5034027;28;20054;-82
2022/03/04 03:28:44;;;;;;;4.25;2.20;;;;;;;-3.05;100.00;101838.28;5025252;28;20071;-84
2022/03/04 03:31:10;;;;;;;8.38;3.30;;;;;;;-3.17;100.00;101806.28;5046828;28;20028;-82
2022/03/04 03:33:37;;;;;;;5.55;2.90;;;;;;;-3.05;100.00;101828.59;5049877;28;20032;-82
2022/03/04 03:36:03;;;;;;;6.57;3.33;;;;;;;-3.08;100.00;101826.09;5063327;28;20032;-81
2022/03/04 03:38:29;;;;;;;9.80;2.70;;;;;;;-3.19;100.00;101841.47;5063759;28;20502;-81
2022/03/04 03:40:55;;;;;;;11.90;3.03;;;;;;;-3.25;100.00;101833.81;5031529;28;20036;-84
2022/03/04 03:43:21;;;;;;;11.38;2.38;;;;;;;-3.13;100.00;101841.22;5043113;28;20037;-82
2022/03/04 03:45:46;;;;;;;3.60;2.25;;;;;;;-3.08;100.00;101836.63;5066843;28;20061;-82
2022/03/04 03:48:12;;;;;;;5.28;2.65;;;;;;;-3.03;100.00;101841.72;5045851;28;20493;-81
2022/03/04 03:50:38;;;;;;;6.85;2.97;;;;;;;-3.10;100.00;101823.56;5061289;28;20032;-82
2022/03/04 03:53:05;;;;;;;6.70;2.83;;;;;;;-3.07;100.00;101835.69;5068632;28;20024;-82
2022/03/04 03:55:30;;;;;;;9.10;3.35;;;;;;;-3.28;100.00;101826.03;5058116;28;20101;-81
2022/03/04 03:57:56;;;;;;;6.82;2.88;;;;;;;-3.34;100.00;101846.41;5048833;28;20028;-82
2022/03/04 04:00:21;;;;;;;10.82;3.70;;;;;;;-3.41;100.00;101841.47;5063438;28;20078;-84
2022/03/04 04:02:47;;;;;;;6.05;2.75;;;;;;;-3.57;100.00;101835.94;5041876;28;20397;-85
2022/03/04 04:05:13;;;;;;;7.32;3.00;;;;;;;-3.66;100.00;101847.63;5047139;28;20032;-82
2022/03/04 04:07:38;;;;;;;8.70;2.78;;;;;;;-3.79;100.00;101841.13;5031195;28;20563;-82
2022/03/04 04:10:05;;;;;;;10.52;2.83;;;;;;;-3.89;100.00;101855.50;5034153;28;20032;-82
2022/03/04 04:12:31;;;;;;;10.35;2.88;;;;;;;-4.02;100.00;101842.84;5057698;28;20040;-81
2022/03/04 04:14:56;;;;;;;5.72;3.25;;;;;;;-4.08;100.00;101853.53;5047310;28;20031;-81
2022/03/04 04:17:22;;;;;;;4.40;2.35;;;;;;;-4.09;100.00;101849.22;5048473;28;20039;-81
2022/03/04 04:19:48;;;;;;;4.32;2.17;;;;;;;-4.07;100.00;101847.41;5044078;28;20071;-82
2022/03/04 04:22:13;;;;;;;7.80;2.90;;;;;;;-4.12;100.00;101848.47;5028467;28;20036;-81
2022/03/04 04:24:39;;;;;;;5.68;3.28;;;;;;;-4.17;100.00;101851.25;5027798;28;20041;-81
2022/03/04 04:27:05;;;;;;;5.55;1.98;;;;;;;-4.19;100.00;101837.31;5032862;28;20465;-81
2022/03/04 04:29:30;;;;;;;13.50;3.25;;;;;;;-3.86;100.00;101860.69;5033047;28;20477;-83
2022/03/04 04:31:56;;;;;;;10.45;3.35;;;;;;;-3.80;100.00;101860.44;5031974;28;20030;-83
2022/03/04 04:34:22;;;;;;;7.07;2.17;;;;;;;-3.84;100.00;101856.19;5033087;28;20168;-81
2022/03/04 04:36:48;;;;;;;11.20;3.17;;;;;;;-4.08;100.00;101848.28;5030834;28;20462;-81
2022/03/04 04:39:13;;;;;;;3.13;1.65;;;;;;;-4.30;100.00;101839.47;5025085;28;20493;-81
2022/03/04 04:41:39;;;;;;;8.02;2.60;;;;;;;-4.20;100.00;101852.22;5032455;28;20025;-81
2022/03/04 04:44:05;;;;;;;6.45;2.55;;;;;;;-4.19;100.00;101860.97;5055277;28;20087;-81
2022/03/04 04:46:30;;;;;;;5.07;3.45;;;;;;;-4.08;100.00;101865.81;5033664;28;20067;-82
2022/03/04 04:48:56;;;;;;;4.78;2.25;;;;;;;-4.05;100.00;101876.22;5023714;28;20036;-83
2022/03/04 04:51:22;;;;;;;6.97;2.78;;;;;;;-4.06;100.00;101875.38;5047357;28;20517;-82
2022/03/04 04:53:47;;;;;;;4.25;3.00;;;;;;;-4.22;100.00;101853.19;5055413;28;20084;-81
2022/03/04 04:56:13;;;;;;;4.75;2.80;;;;;;;-4.07;100.00;101875.44;5046916;28;20032;-81
2022/03/04 04:58:39;;;;;;;6.43;2.80;;;;;;;-4.18;100.00;101867.94;5048876;28;20036;-81
2022/03/04 05:01:04;;;;;;;10.85;3.75;;;;;;;-4.26;100.00;101883.09;5061963;28;20033;-82
2022/03/04 05:03:30;;;;;;;5.03;2.28;;;;;;;-4.27;100.00;101884.84;5034184;28;20032;-81
2022/03/04 05:05:56;;;;;;;5.75;2.85;;;;;;;-4.24;100.00;101883.91;5051305;28;20390;-82
2022/03/04 05:08:24;;;;;;;5.22;2.80;;;;;;;-4.31;100.00;101879.75;5047305;28;20060;-81
2022/03/04 05:10:50;;;;;;;5.05;2.50;;;;;;;-4.29;100.00;101889.28;5045785;28;20037;-82
2022/03/04 05:13:16;;;;;;;5.97;2.08;;;;;;;-4.20;100.00;101888.16;5048536;28;20551;-82
2022/03/04 05:15:41;;;;;;;6.53;2.42;;;;;;;-4.17;100.00;101869.66;5040401;28;20032;-82
2022/03/04 05:18:08;;;;;;;7.60;2.70;;;;;;;-4.08;100.00;101892.94;5032104;28;20064;-81
2022/03/04 05:20:34;;;;;;;10.05;2.80;;;;;;;-4.17;100.00;101882.78;5060278;28;20032;-82
2022/03/04 05:23:00;;;;;;;5.30;2.47;;;;;;;-4.18;100.00;101888.06;5035927;28;20020;-81
2022/03/04 05:25:26;;;;;;;4.20;2.30;;;;;;;-4.21;100.00;101891.66;5038817;28;20033;-81
2022/03/04 05:27:51;;;;;;;8.23;2.85;;;;;;;-4.16;100.00;101902.00;5048700;28;20429;-81
2022/03/04 05:30:17;;;;;;;9.35;2.85;;;;;;;-4.31;100.00;101887.63;5044400;28;20055;-81
2022/03/04 05:32:43;;;;;;;10.38;2.92;;;;;;;-4.36;100.00;101902.72;5051729;28;20040;-81
2022/03/04 05:35:08;;;;;;;5.40;2.45;;;;;;;-4.38;100.00;101909.78;5024970;28;20390;-82
2022/03/04 05:37:34;;;;;;;9.15;2.92;;;;;;;-4.40;100.00;101906.34;5030991;28;20044;-82
2022/03/04 05:40:00;;;;;;;7.80;3.00;;;;;;;-4.47;100.00;101911.81;5051968;28;20385;-81
2022/03/04 05:42:26;;;;;;;14.02;2.83;;;;;;;-4.55;100.00;101915.56;5036260;28;20060;-84
2022/03/04 05:44:52;;;;;;;11.38;3.53;;;;;;;-4.78;100.00;101895.34;5062131;28;20512;-82
2022/03/04 05:47:17;;;;;;;10.50;3.58;;;;;;;-4.69;100.00;101926.53;5033117;28;20036;-82
2022/03/04 05:49:43;;;;;;;10.18;2.38;;;;;;;-4.83;100.00;101931.38;5034294;28;20381;-82
2022/03/04 05:52:09;;;;;;;6.57;3.40;;;;;;;-4.89;100.00;101920.16;5036271;28;20130;-82
2022/03/04 05:54:35;;;;;;;5.50;3.25;;;;;;;-4.88;100.00;101919.25;5061817;28;20048;-81
2022/03/04 05:57:01;;;;;;;8.38;2.65;;;;;;;-4.79;100.00;101914.59;5045338;28;20072;-81
2022/03/04 05:59:27;;;;;;;7.28;3.10;;;;;;;-4.72;100.00;101918.75;5040447;28;20504;-80
2022/03/04 06:01:52;;;;;;;11.57;3.53;;;;;;;-4.80;100.00;101915.53;5037377;28;20051;-82
2022/03/04 06:04:18;;;;;;;7.28;3.63;;;;;;;-4.82;100.00;101925.19;5028826;28;20070;-82
2022/03/04 06:06:44;;;;;;;11.32;3.17;;;;;;;-4.84;100.00;101919.13;5055911;28;20064;-82
2022/03/04 06:09:10;;;;;;;11.20;3.83;;;;;;;-4.88;100.00;101915.75;5033079;28;20037;-82
2022/03/04 06:11:35;;;;;;;6.65;2.90;;;;;;;-4.86;100.00;101925.31;5051394;28;20032;-83
2022/03/04 06:14:01;;;;;;;5.32;2.47;;;;;;;-4.77;100.00;101918.03;5066937;28;20134;-82
2022/03/04 06:16:27;;;;;;;16.52;3.10;;;;;;;-4.61;100.00;101929.75;5024922;28;20037;-83
2022/03/04 06:18:54;;;;;;;8.73;2.88;;;;;;;-4.63;100.00;101928.97;5032453;28;20036;-82
2022/03/04 06:21:19;;;;;;;11.13;3.28;;;;;;;-4.72;100.00;101918.75;5069538;28;20032;-83
2022/03/04 06:23:45;;;;;;;6.00;2.67;;;;;;;-4.59;100.00;101922.69;5028628;28;20017;-82
2022/03/04 06:26:11;;;;;;;7.65;3.42;;;;;;;-4.54;100.00;101925.19;5033128;28;20028;-84
2022/03/04 06:28:36;;;;;;;5.40;2.47;;;;;;;-4.53;100.00;101932.97;5065167;28;20485;-83
2022/03/04 06:31:02;;;;;;;8.63;2.47;;;;;;;-4.58;100.00;101934.91;5028789;28;20123;-82
2022/03/04 06:33:32;;;;;;;6.30;3.03;;;;;;;-4.61;100.00;101932.38;5035478;28;20144;-82
2022/03/04 06:36:16;;;;;;;12.93;2.83;;;;;;;-4.61;100.00;101942.88;5046908;28;20032;-83
2022/03/04 06:38:44;;;;;;;5.53;2.70;;;;;;;-4.69;100.00;101923.91;5055215;28;20040;-82
2022/03/04 06:41:14;;;;;;;9.38;2.88;;;;;;;-4.60;100.00;101942.00;5033947;28;20036;-82
2022/03/04 06:43:40;;;;;;;5.75;2.33;;;;;;;-4.68;100.00;101938.75;5068553;28;20180;-81
2022/03/04 06:46:06;;;;;;;4.43;2.70;;;;;;;-4.73;100.00;101945.91;5031968;28;20025;-82
2022/03/04 06:48:33;;;;;;;8.30;2.58;;;;;;;-4.75;100.00;101942.47;5068759;28;20066;-82
2022/03/04 06:50:59;;;;;;;6.95;2.50;;;;;;;-4.77;100.00;101947.75;5046049;28;20029;-83
2022/03/04 06:53:25;;;;;;;6.97;2.65;;;;;;;-4.82;100.00;101943.56;5033531;28;20040;-81
2022/03/04 06:55:51;;;;;;;9.55;2.63;;;;;;;-4.87;100.00;101951.56;5023912;28;20045;-85
2022/03/04 06:58:17;;;;;;;9.70;2.95;;;;;;;-4.89;100.00;101951.63;5063562;28;20075;-81
2022/03/04 07:00:43;;;;;;;6.60;2.08;;;;;;;-4.81;100.00;101958.41;5031602;28;20063;-82
2022/03/04 07:03:09;;;;;;;5.30;2.97;;;;;;;-4.78;100.00;101953.06;5048047;28;20033;-81
2022/03/04 07:05:35;;;;;;;10.30;2.65;;;;;;;-4.84;100.00;101942.75;5049145;28;20040;-86
2022/03/04 07:08:01;;;;;;;4.45;2.78;;;;;;;-4.84;100.00;101945.38;5044016;28;20082;-81
2022/03/04 07:10:27;;;;;;;4.45;2.53;;;;;;;-4.83;100.00;101953.22;5060325;28;20029;-82
2022/03/04 07:12:53;;;;;;;12.20;2.65;;;;;;;-4.95;100.00;101951.84;5059778;28;20079;-83
2022/03/04 07:15:19;;;;;;;5.72;2.25;;;;;;;-5.02;100.00;101954.69;5043043;28;20042;-82
2022/03/04 07:17:46;;;;;;;11.93;2.80;;;;;;;-5.10;100.00;101953.16;5042511;28;20044;-82
2022/03/04 07:20:12;;;;;;;8.80;2.97;;;;;;;-5.36;100.00;101917.22;5027054;28;20040;-84
2022/03/04 07:22:39;;;;;;;5.95;2.30;;;;;;;-5.15;100.00;101954.19;5042064;28;20044;-81
2022/03/04 07:25:10;;;;;;;4.82;1.92;;;;;;;-4.98;100.00;101951.91;5041979;28;20930;-81
2022/03/04 07:27:37;;;;;;;6.70;1.83;;;;;;;-4.83;100.00;101963.69;5056414;28;20047;-81
2022/03/04 07:30:05;;;;;;;7.25;2.05;;;;;;;-4.72;100.00;101964.22;5023536;28;20047;-84
2022/03/04 07:32:32;;;;;;;4.72;2.20;;;;;;;-4.70;100.00;101957.16;5060407;28;20044;-84
2022/03/04 07:34:58;;;;;;;7.60;2.75;;;;;;;-4.61;100.00;101973.53;5023983;28;20047;-83
2022/03/04 07:37:23;;;;;;;5.13;2.45;;;;;;;-4.61;100.00;101970.91;5061653;28;20032;-81
2022/03/04 07:39:50;;;;;;;3.63;1.95;;;;;;;-4.56;100.00;101964.59;5057791;28;20021;-81
2022/03/04 07:42:15;;;;;;;3.22;1.55;;;;;;;-4.21;100.00;101976.59;5060638;28;20369;-82
2022/03/04 07:44:41;;;;;;;5.72;2.55;;;;;;;-3.96;100.00;101969.63;5047041;28;20024;-81
2022/03/04 07:47:07;;;;;;;7.00;1.95;;;;;;;-3.73;100.00;101982.84;5026577;28;20079;-81
2022/03/04 07:49:35;;;;;;;5.13;2.47;;;;;;;-3.63;100.00;101967.56;5043506;28;20039;-82
2022/03/04 07:52:01;;;;;;;4.75;2.33;;;;;;;-3.43;100.00;101977.38;5034051;28;20440;-81
2022/03/04 07:54:27;;;;;;;5.15;2.10;;;;;;;-2.95;100.00;101976.47;5059209;28;20024;-80
2022/03/04 07:56:52;;;;;;;4.35;1.80;;;;;;;-2.27;100.00;101974.63;5035359;28;20453;-80
2022/03/04 07:59:19;;;;;;;4.65;1.83;;;;;;;-1.61;100.00;101970.03;5033394;28;20465;-82
2022/03/04 08:01:45;;;;;;;5.88;2.83;;;;;;;-0.90;100.00;101972.09;5032799;28;20071;-81
2022/03/04 08:04:11;;;;;;;9.38;2.67;;;;;;;-0.10;100.00;101974.38;5027161;28;20044;-82
2022/03/04 08:06:38;;;;;;;8.10;2.80;;;;;;;0.52;100.00;101979.13;5028955;28;20036;-82
2022/03/04 08:09:04;;;;;;;7.00;2.72;;;;;;;1.01;100.00;101984.47;5047609;28;20032;-82
2022/03/04 08:11:29;;;;;;;7.53;2.58;;;;;;;1.16;99.47;101978.31;5032339;28;20054;-82
2022/03/04 08:13:55;;;;;;;14.38;2.35;;;;;;;1.20;99.35;101985.16;5046960;28;20064;-82
2022/03/04 08:16:21;;;;;;;5.32;2.70;;;;;;;1.14;100.00;101972.25;5049808;28;20067;-82
2022/03/04 08:18:47;;;;;;;8.05;2.80;;;;;;;1.16;100.00;101986.25;5065156;28;20028;-83
2022/03/04 08:21:12;;;;;;;6.15;2.50;;;;;;;0.91;100.00;101985.91;5027256;28;21065;-82
2022/03/04 08:23:41;;;;;;;4.45;2.70;;;;;;;1.06;100.00;101988.56;5062730;28;20055;-83
2022/03/04 08:26:07;;;;;;;5.43;2.17;;;;;;;1.84;99.44;101990.38;5047910;28;20544;-83
2022/03/04 08:28:33;;;;;;;10.85;2.60;;;;;;;2.04;98.03;101976.81;5047419;28;20070;-81
2022/03/04 08:30:59;;;;;;;10.82;2.55;;;;;;;2.45;96.66;101954.88;5032894;28;20025;-82
2022/03/04 08:33:27;;;;;;;8.55;2.83;;;;;;;2.73;96.54;102003.66;5062880;28;20038;-82
2022/03/04 08:35:53;;;;;;;5.88;1.80;;;;;;;2.87;96.91;102003.66;5046551;28;20083;-81
2022/03/04 08:38:19;;;;;;;8.88;2.72;;;;;;;3.88;92.88;102004.28;5025655;28;20128;-82
2022/03/04 08:40:44;;;;;;;7.88;3.58;;;;;;;4.94;88.96;101997.84;5040974;28;20131;-84
2022/03/04 08:43:10;;;;;;;8.88;3.88;;;;;;;5.56;86.41;101991.63;5049384;28;20450;-84
2022/03/04 08:45:36;;;;;;;7.07;3.75;;;;;;;6.46;82.79;102009.84;5062218;28;20107;-87
2022/03/04 08:48:06;;;;;;;9.50;4.53;;;;;;;7.18;79.08;102001.50;5048557;28;20205;-84
2022/03/04 08:50:33;;;;;;;7.93;4.28;;;;;;;8.04;77.37;102007.81;5064771;28;20350;-86
2022/03/04 08:53:01;;;;;;;12.93;4.80;;;;;;;8.87;74.46;102014.19;5030093;28;20028;-83
2022/03/04 08:55:27;;;;;;;6.55;4.00;;;;;;;9.44;72.74;102007.28;5031620;28;20032;-84
2022/03/04 08:57:53;;;;;;;10.77;3.80;;;;;;;9.93;72.41;102010.91;5033628;28;20041;-84
2022/03/04 09:00:18;;;;;;;10.35;6.13;;;;;;;10.29;70.37;102013.88;5050085;28;20036;-88
2022/03/04 09:02:44;;;;;;;13.07;5.53;;;;;;;10.25;69.75;102017.84;5066711;28;20035;-83
2022/03/04 09:05:13;;;;;;;15.55;7.60;;;;;;;10.00;70.24;102014.75;5061324;28;20055;-84
2022/03/04 09:07:40;;;;;;;12.73;5.50;;;;;;;7.88;77.07;102005.56;5049759;28;20044;-86
2022/03/04 09:10:09;;;;;;;12.10;5.28;;;;;;;7.86;81.86;101995.00;5066659;28;20058;-87
2022/03/04 09:12:35;;;;;;;11.18;7.40;;;;;;;9.70;77.99;102002.25;5034855;28;20044;-85
2022/03/04 09:15:03;;;;;;;14.35;6.85;;;;;;;11.11;74.34;102013.22;5050829;28;20099;-83
2022/03/04 09:17:29;;;;;;;13.55;6.25;;;;;;;12.05;71.97;102012.94;5054060;28;20296;-84
2022/03/04 09:19:55;;;;;;;8.82;5.60;;;;;;;12.57;70.17;102012.19;5041100;28;20085;-84
2022/03/04 09:22:20;;;;;;;12.75;4.88;;;;;;;13.20;69.77;102019.09;5072735;28;20148;-84
2022/03/04 09:24:46;;;;;;;11.43;5.72;;;;;;;13.62;68.78;102008.28;5031993;28;20036;-84
2022/03/04 09:27:12;;;;;;;12.63;5.57;;;;;;;14.04;67.33;101992.97;5068492;28;20128;-84
2022/03/04 09:29:37;;;;;;;7.10;2.65;;;;;;;14.28;66.85;102003.78;5038364;28;20041;-84
2022/03/04 09:32:04;;;;;;;6.65;3.20;;;;;;;14.62;67.18;101999.22;5034252;28;20411;-84
2022/03/04 09:34:29;;;;;;;10.88;3.13;;;;;;;15.01;65.62;102012.84;5036103;28;20371;-84
2022/03/04 09:36:57;;;;;;;6.22;3.05;;;;;;;15.12;64.71;102009.75;5050817;28;20028;-83
2022/03/04 09:39:23;;;;;;;8.40;3.00;;;;;;;15.46;66.07;102008.56;5032204;28;20079;-85
2022/03/04 09:41:49;;;;;;;9.88;3.88;;;;;;;15.78;65.09;102004.84;5035991;28;20371;-85
2022/03/04 09:44:15;;;;;;;6.93;3.42;;;;;;;16.09;64.30;102013.94;5029769;28;20051;-83
2022/03/04 09:46:42;;;;;;;6.47;3.33;;;;;;;16.49;63.99;102013.59;5034431;28;20064;-83
2022/03/04 09:49:08;;;;;;;7.35;2.85;;;;;;;16.89;62.28;102016.13;5033435;28;20478;-83
2022/03/04 09:51:34;;;;;;;7.72;2.38;;;;;;;16.52;61.25;102006.97;5062704;28;20024;-83
2022/03/04 09:54:00;;;;;;;7.43;3.30;;;;;;;16.40;62.26;102013.84;5048560;28;20021;-84
2022/03/04 09:56:26;;;;;;;6.50;2.30;;;;;;;16.62;61.49;102020.28;5035124;28;20032;-83
2022/03/04 09:58:54;;;;;;;13.60;3.15;;;;;;;16.56;62.29;101991.97;5054584;28;20033;-83
2022/03/04 10:01:20;;;;;;;6.25;2.30;;;;;;;17.12;63.00;101995.13;5057134;28;20028;-81
2022/03/04 10:03:50;;;;;;;7.35;2.58;;;;;;;17.61;60.21;102025.41;5062061;28;20040;-84
2022/03/04 10:06:18;;;;;;;6.68;2.63;;;;;;;17.54;60.93;101993.56;5036063;28;20032;-83
2022/03/04 10:08:45;;;;;;;14.23;3.10;;;;;;;18.01;59.76;102030.28;5072919;28;20044;-84
2022/03/04 10:11:12;;;;;;;8.15;2.50;;;;;;;18.11;60.16;102016.34;5036084;28;20031;-82
2022/03/04 10:13:51;;;;;;;12.95;4.53;;;;;;;18.39;59.20;102023.69;5029581;28;20045;-81
2022/03/04 10:16:24;;;;;;;4.53;2.78;;;;;;;18.41;58.33;102021.63;5037963;28;20050;-81
2022/03/04 10:19:13;;;;;;;7.97;4.35;;;;;;;18.26;57.41;102015.41;5051714;28;20028;-81
2022/03/04 10:21:57;;;;;;;9.57;3.03;;;;;;;17.72;58.02;102008.59;5029294;28;20485;-80
2022/03/04 10:24:37;;;;;;;8.77;2.83;;;;;;;17.53;59.21;102010.88;5062667;28;20031;-84
2022/03/04 10:27:12;;;;;;;7.60;2.53;;;;;;;17.45;58.88;102021.03;5026116;28;20044;-84
2022/03/04 10:29:49;;;;;;;9.63;2.17;;;;;;;17.64;60.48;102025.03;5048796;28;20090;-81
2022/03/04 10:32:19;;;;;;;8.95;2.45;;;;;;;17.76;58.22;102024.34;5035468;28;20094;-83
2022/03/04 10:34:45;;;;;;;10.73;3.08;;;;;;;17.77;60.89;102033.34;5036253;28;20416;-83
2022/03/04 10:37:12;;;;;;;11.05;2.25;;;;;;;18.31;59.15;102016.53;5048723;28;20123;-84
2022/03/04 10:40:00;;;;;;;9.32;2.58;;;;;;;18.37;59.06;102018.47;5051690;28;20037;-82
2022/03/04 10:42:41;;;;;;;10.18;2.42;;;;;;;18.78;60.99;102014.19;5036615;28;20032;-81
2022/03/04 10:45:09;;;;;;;8.10;2.75;;;;;;;19.00;59.58;101987.66;5043062;28;20119;-81
2022/03/04 10:47:44;;;;;;;6.95;3.00;;;;;;;19.45;57.63;102018.94;5053440;28;20115;-82
2022/03/04 10:50:11;;;;;;;12.85;3.97;;;;;;;19.84;55.65;102020.13;5047029;28;20458;-81
2022/03/04 10:52:58;;;;;;;12.40;4.72;;;;;;;20.23;53.79;102018.50;5067456;28;20028;-81
2022/03/04 10:55:30;;;;;;;11.73;3.75;;;;;;;20.66;50.14;102009.88;5048120;28;20108;-82
2022/03/04 10:58:01;;;;;;;6.40;2.30;;;;;;;20.75;48.38;102013.25;5064719;28;20035;-81
2022/03/04 11:00:29;;;;;;;6.03;2.10;;;;;;;21.05;47.22;101999.94;5034030;28;20488;-81
2022/03/04 11:02:58;;;;;;;6.65;2.40;;;;;;;21.37;47.29;102014.53;5037718;28;20074;-81
2022/03/04 11:05:24;;;;;;;6.35;1.83;;;;;;;21.44;48.70;102007.16;5041938;28;20052;-81
2022/03/04 11:07:50;;;;;;;6.05;1.92;;;;;;;21.66;43.99;102009.56;5069083;28;20064;-81
2022/03/04 11:10:17;;;;;;;5.15;1.83;;;;;;;21.08;43.52;101970.25;5051816;28;20437;-81
2022/03/04 11:12:45;;;;;;;5.07;2.00;;;;;;;20.82;43.68;102001.22;5066251;28;20048;-81
2022/03/04 11:15:15;;;;;;;4.43;1.80;;;;;;;20.94;43.29;101998.69;5062914;28;20040;-80